Boca Chica, Texas
Current Conditions -  °F | °C
As of 12:53 AM on Friday 19 Dec 2014 (Local Time) from KBRO Reporting Station
Broken Clouds Broken Clouds  
Wind Chill: 71°   Ceiling: 7000
Heat Index: 71°   Visibility: 9mi
Dew Point: 67°   Wind: 9mph
Humidity: 87%   Direction: 150°SSE
Pressure: 29.96"   Gusts: NA
Location:  26.0002°N, 97.5729°W
Report Text: KBRO 190653Z 15008KT 9SM BKN070 22/19 A2996 RMK AO2 SLP145 T02170194
Loading
Personal Weather Stations






























Interactive Weather Map New forecast layout! Learn more

10-Day Weather Forecast

Advertisements
Track Severe Weather on mobile